Time;durP1;ratioP1;P1;durP2;ratioP2;P2;SDS_P1;SDS_P2;PMS_P1;PMS_P2;Temp;Humidity;BMP_temperature;BMP_pressure;BME280_temperature;BME280_humidity;BME280_pressure;Samples;Min_cycle;Max_cycle;Signal;HPM_P1;HPM_P2
2021/03/23 00:02:02;;;;;;;7.87;6.00;;;;;;;8.08;67.25;101991.16;5085272;28;20180;-77
2021/03/23 00:04:27;;;;;;;9.87;6.80;;;;;;;7.89;67.79;101997.34;5082768;28;20188;-76
2021/03/23 00:06:53;;;;;;;7.77;6.37;;;;;;;7.67;68.01;101995.56;5078936;28;20870;-75
2021/03/23 00:09:18;;;;;;;8.37;6.13;;;;;;;8.03;67.40;101994.41;5080553;28;20181;-75
2021/03/23 00:11:46;;;;;;;6.60;5.60;;;;;;;7.58;68.55;102000.38;5080682;28;20230;-75
2021/03/23 00:14:14;;;;;;;7.77;6.03;;;;;;;7.56;68.62;102004.59;5079518;28;20453;-75
2021/03/23 00:16:41;;;;;;;8.93;6.80;;;;;;;7.79;67.72;101994.31;5079753;28;20505;-75
2021/03/23 00:19:08;;;;;;;8.40;6.80;;;;;;;7.67;67.68;102002.47;5063471;28;20488;-75
2021/03/23 00:21:34;;;;;;;9.10;6.90;;;;;;;7.61;67.96;102000.50;5062829;28;20525;-75
2021/03/23 00:24:00;;;;;;;9.57;6.90;;;;;;;7.95;66.60;101999.28;5078914;28;20533;-75
2021/03/23 00:26:26;;;;;;;11.70;6.77;;;;;;;7.65;67.86;101997.19;5079994;28;20466;-76
2021/03/23 00:28:54;;;;;;;10.83;6.40;;;;;;;7.85;67.18;101990.25;5080374;28;20523;-75
2021/03/23 00:31:23;;;;;;;12.00;7.17;;;;;;;8.04;65.82;101991.88;5080250;28;20515;-77
2021/03/23 00:33:48;;;;;;;8.83;7.27;;;;;;;7.71;66.96;102001.75;5079746;28;20443;-76
2021/03/23 00:36:20;;;;;;;8.70;6.93;;;;;;;7.59;67.19;102005.63;5078694;28;20447;-79
2021/03/23 00:38:45;;;;;;;9.30;7.23;;;;;;;8.16;65.65;102003.56;5063281;28;20527;-79
2021/03/23 00:41:11;;;;;;;10.20;7.00;;;;;;;7.35;68.42;102005.47;5063385;28;20426;-78
2021/03/23 00:43:37;;;;;;;6.80;6.10;;;;;;;7.39;68.98;102007.38;5080454;28;20181;-78
2021/03/23 00:46:03;;;;;;;9.47;7.30;;;;;;;7.57;68.53;102006.38;5078650;28;20252;-79
2021/03/23 00:48:28;;;;;;;7.80;6.50;;;;;;;7.53;68.32;101999.28;5080709;28;20422;-79
2021/03/23 00:50:54;;;;;;;8.60;6.60;;;;;;;7.02;68.97;101995.41;5080056;28;20185;-77
2021/03/23 00:53:19;;;;;;;9.03;6.27;;;;;;;7.41;68.09;101992.78;5078956;28;20230;-77
2021/03/23 00:55:45;;;;;;;8.33;5.63;;;;;;;7.56;67.60;102002.91;5078137;28;20173;-78
2021/03/23 00:58:11;;;;;;;7.93;5.60;;;;;;;7.28;68.41;102003.44;5080011;28;20173;-78
2021/03/23 01:00:36;;;;;;;6.80;5.30;;;;;;;7.09;69.12;101993.97;5079098;28;20761;-76
2021/03/23 01:03:01;;;;;;;6.03;5.33;;;;;;;6.90;69.86;102003.50;5062534;28;20172;-75
2021/03/23 01:05:29;;;;;;;7.03;5.43;;;;;;;7.25;68.35;101992.91;5077938;28;20212;-77
2021/03/23 01:07:55;;;;;;;7.47;5.50;;;;;;;7.14;68.73;101986.38;5079513;28;20169;-78
2021/03/23 01:10:23;;;;;;;9.50;5.60;;;;;;;7.13;68.32;101989.78;5079991;28;20468;-77
2021/03/23 01:12:49;;;;;;;8.50;5.73;;;;;;;7.23;68.85;101987.66;5080368;28;20687;-77
2021/03/23 01:15:18;;;;;;;10.40;5.23;;;;;;;7.63;67.28;101983.28;5079771;28;20464;-76
2021/03/23 01:17:43;;;;;;;6.10;5.50;;;;;;;7.30;67.61;101986.22;5081902;28;20177;-77
2021/03/23 01:20:10;;;;;;;8.67;6.00;;;;;;;7.47;67.50;101986.03;5066197;28;20510;-76
2021/03/23 01:22:36;;;;;;;10.97;5.20;;;;;;;7.35;67.73;101982.13;5082950;28;20176;-76
2021/03/23 01:25:02;;;;;;;8.60;5.00;;;;;;;7.30;67.87;101968.06;5078846;28;20470;-75
2021/03/23 01:27:28;;;;;;;7.83;5.67;;;;;;;7.05;68.30;101971.31;5078701;28;20415;-76
2021/03/23 01:29:53;;;;;;;10.10;6.23;;;;;;;7.31;67.93;101964.66;5078952;28;20442;-75
2021/03/23 01:32:18;;;;;;;8.00;4.80;;;;;;;6.86;67.58;101969.56;5079121;28;20238;-78
2021/03/23 01:34:45;;;;;;;6.13;4.80;;;;;;;7.47;67.34;101965.28;5078239;28;20285;-74
2021/03/23 01:37:10;;;;;;;10.03;5.50;;;;;;;7.56;66.38;101960.47;5079599;28;20286;-75
2021/03/23 01:39:36;;;;;;;5.80;4.93;;;;;;;7.87;65.56;101956.56;5079438;28;20415;-76
2021/03/23 01:42:02;;;;;;;6.23;4.63;;;;;;;7.59;65.68;101958.91;5079393;28;20173;-76
2021/03/23 01:44:27;;;;;;;6.80;4.27;;;;;;;7.63;65.95;101959.03;5061097;28;20443;-76
2021/03/23 01:46:53;;;;;;;6.03;4.47;;;;;;;7.58;66.06;101958.84;5077560;28;20258;-76
2021/03/23 01:49:24;;;;;;;7.67;4.50;;;;;;;7.58;65.38;101956.25;5078780;28;20177;-76
2021/03/23 01:51:54;;;;;;;4.53;4.03;;;;;;;7.71;65.36;101955.94;5078909;28;20197;-75
2021/03/23 01:54:29;;;;;;;6.07;4.23;;;;;;;7.41;65.98;101960.72;5044642;28;20453;-75
2021/03/23 01:56:56;;;;;;;4.40;3.57;;;;;;;7.03;67.22;101967.75;5076873;28;20450;-74
2021/03/23 01:59:22;;;;;;;5.30;4.10;;;;;;;7.35;65.87;101961.34;5083440;28;20447;-75
2021/03/23 02:01:48;;;;;;;6.50;4.07;;;;;;;7.31;65.98;101968.97;5063936;28;20428;-75
2021/03/23 02:04:13;;;;;;;11.67;4.10;;;;;;;7.57;65.43;101962.25;5078969;28;20414;-75
2021/03/23 02:06:42;;;;;;;4.90;4.33;;;;;;;7.67;64.90;101964.44;5060009;28;20216;-76
2021/03/23 02:09:19;;;;;;;4.23;3.80;;;;;;;7.48;65.03;101967.06;5078413;28;20168;-76
2021/03/23 02:11:56;;;;;;;5.80;4.37;;;;;;;7.40;66.20;101969.31;5060479;28;20415;-81
2021/03/23 02:14:25;;;;;;;9.60;4.50;;;;;;;6.90;66.94;101968.91;5059877;28;20457;-79
2021/03/23 02:16:51;;;;;;;8.80;4.93;;;;;;;7.49;64.90;101963.66;5040849;28;20478;-79
2021/03/23 02:19:19;;;;;;;7.70;3.90;;;;;;;7.48;65.22;101965.38;5058667;28;20423;-79
2021/03/23 02:21:44;;;;;;;6.50;4.00;;;;;;;7.23;66.01;101964.31;5058579;28;20169;-80
2021/03/23 02:24:13;;;;;;;7.13;3.70;;;;;;;7.26;66.04;101960.97;5041469;28;20904;-79
2021/03/23 02:26:38;;;;;;;4.97;4.37;;;;;;;7.57;64.63;101962.25;5060407;28;20216;-78
2021/03/23 02:29:03;;;;;;;5.83;4.23;;;;;;;7.39;65.41;101963.25;5078481;28;20513;-80
2021/03/23 02:31:37;;;;;;;5.70;4.33;;;;;;;7.25;65.84;101964.38;5078508;28;20537;-79
2021/03/23 02:34:04;;;;;;;5.07;3.80;;;;;;;7.05;65.74;101958.34;5078584;28;20176;-80
2021/03/23 02:36:30;;;;;;;5.93;4.00;;;;;;;7.59;64.99;101958.91;5076594;28;20853;-79
2021/03/23 02:38:55;;;;;;;5.43;4.03;;;;;;;7.50;64.87;101966.31;5077535;28;20438;-77
2021/03/23 02:41:21;;;;;;;6.63;4.43;;;;;;;7.58;64.41;101967.50;5077769;28;20192;-77
2021/03/23 02:43:47;;;;;;;5.97;4.10;;;;;;;7.64;64.89;101958.22;5078457;28;20188;-76
2021/03/23 02:46:12;;;;;;;5.77;4.17;;;;;;;7.55;65.26;101954.41;5076356;28;20888;-78
2021/03/23 02:48:41;;;;;;;5.17;4.40;;;;;;;7.00;66.70;101963.31;5061508;28;20175;-78
2021/03/23 02:51:07;;;;;;;6.60;4.30;;;;;;;6.93;66.40;101966.47;5077755;28;20234;-78
2021/03/23 02:53:33;;;;;;;5.30;4.10;;;;;;;7.39;65.31;101968.44;5078185;28;20419;-78
2021/03/23 02:55:58;;;;;;;8.73;4.70;;;;;;;7.38;64.94;101966.66;5076059;28;20450;-78
2021/03/23 02:58:23;;;;;;;8.13;4.07;;;;;;;7.42;65.37;101965.97;5078221;28;20180;-78
2021/03/23 03:00:49;;;;;;;8.67;4.47;;;;;;;7.38;64.79;101969.25;5076451;28;20184;-78
2021/03/23 03:03:14;;;;;;;3.97;3.57;;;;;;;7.39;64.58;101967.56;5078448;28;20403;-78
2021/03/23 03:05:40;;;;;;;5.63;4.37;;;;;;;6.81;67.00;101965.91;5076262;28;20213;-77
2021/03/23 03:08:06;;;;;;;8.33;4.00;;;;;;;7.16;66.09;101966.59;5078118;28;20212;-78
2021/03/23 03:10:31;;;;;;;6.70;4.00;;;;;;;7.06;65.49;101963.59;5078525;28;20169;-80
2021/03/23 03:12:58;;;;;;;7.47;3.67;;;;;;;7.24;65.84;101960.03;5077407;28;20252;-79
2021/03/23 03:15:24;;;;;;;5.27;4.07;;;;;;;7.05;65.94;101964.41;5077484;28;20181;-78
2021/03/23 03:17:49;;;;;;;10.40;4.33;;;;;;;7.25;65.60;101970.47;5077460;28;20442;-79
2021/03/23 03:20:15;;;;;;;7.27;4.37;;;;;;;7.31;64.95;101963.78;5078047;28;20172;-79
2021/03/23 03:22:40;;;;;;;5.63;4.23;;;;;;;6.93;66.27;101970.75;5077819;28;20557;-78
2021/03/23 03:25:08;;;;;;;8.43;4.10;;;;;;;7.37;65.30;101966.59;5079042;28;20235;-79
2021/03/23 03:27:33;;;;;;;5.70;4.47;;;;;;;7.31;65.23;101975.03;5061564;28;20182;-77
2021/03/23 03:29:58;;;;;;;5.10;4.10;;;;;;;7.45;64.94;101978.19;5078696;28;20442;-78
2021/03/23 03:32:24;;;;;;;8.07;4.50;;;;;;;7.03;66.19;101976.41;5081158;28;20171;-76
2021/03/23 03:34:49;;;;;;;5.87;3.97;;;;;;;7.27;65.63;101972.25;5080796;28;20547;-77
2021/03/23 03:37:14;;;;;;;6.00;4.17;;;;;;;7.70;64.17;101963.66;5081610;28;20263;-77
2021/03/23 03:39:40;;;;;;;6.60;4.90;;;;;;;7.37;64.87;101961.41;5081181;28;20169;-77
2021/03/23 03:42:06;;;;;;;5.83;4.10;;;;;;;7.17;67.43;101969.25;5080486;28;20450;-77
2021/03/23 03:44:31;;;;;;;5.07;4.30;;;;;;;7.16;65.86;101967.47;5081337;28;20307;-77
2021/03/23 03:46:56;;;;;;;6.20;3.97;;;;;;;7.10;66.43;101971.50;5080170;28;20850;-77
2021/03/23 03:49:22;;;;;;;7.97;4.20;;;;;;;7.10;66.20;101979.28;5082041;28;20187;-77
2021/03/23 03:51:47;;;;;;;6.27;4.03;;;;;;;7.06;66.28;101971.38;5082006;28;20176;-77
2021/03/23 03:54:12;;;;;;;5.40;4.53;;;;;;;7.34;65.80;101985.53;5080318;28;20200;-77
2021/03/23 03:56:38;;;;;;;8.90;4.80;;;;;;;7.19;65.53;101979.69;5071013;28;20203;-77
2021/03/23 03:59:03;;;;;;;7.40;4.10;;;;;;;7.07;65.94;101970.53;5085181;28;20176;-78
2021/03/23 04:01:28;;;;;;;5.33;4.47;;;;;;;7.35;67.09;101969.16;5063627;28;20188;-77
2021/03/23 04:03:53;;;;;;;6.10;4.90;;;;;;;7.14;66.62;101974.28;5080981;28;20226;-78
2021/03/23 04:06:20;;;;;;;5.40;4.43;;;;;;;6.96;67.00;101976.09;5080328;28;20204;-78
2021/03/23 04:08:45;;;;;;;6.73;4.90;;;;;;;6.99;66.37;101968.44;5080313;28;20263;-78
2021/03/23 04:11:11;;;;;;;6.90;4.60;;;;;;;7.23;66.28;101966.03;5080731;28;20403;-77
2021/03/23 04:13:36;;;;;;;8.67;4.50;;;;;;;7.07;66.71;101962.75;5081325;28;20252;-82
2021/03/23 04:16:03;;;;;;;6.80;4.30;;;;;;;7.10;66.71;101971.50;5078986;28;20195;-81
2021/03/23 04:18:28;;;;;;;5.10;4.50;;;;;;;7.10;66.45;101979.28;5080817;28;20180;-80
2021/03/23 04:20:57;;;;;;;5.97;4.53;;;;;;;7.19;66.54;101972.78;5063897;28;20415;-82
2021/03/23 04:23:28;;;;;;;6.13;4.43;;;;;;;6.96;67.18;101966.59;5080179;28;20172;-78
2021/03/23 04:25:54;;;;;;;8.07;4.80;;;;;;;7.48;65.35;101967.97;5079292;28;20536;-77
2021/03/23 04:28:20;;;;;;;9.30;5.63;;;;;;;6.96;66.55;101970.91;5063189;28;20461;-76
2021/03/23 04:30:46;;;;;;;8.60;4.80;;;;;;;6.86;67.77;101975.66;5080432;28;20415;-78
2021/03/23 04:33:11;;;;;;;7.50;5.23;;;;;;;6.94;67.31;101977.72;5079889;28;20431;-77
2021/03/23 04:35:44;;;;;;;6.67;4.37;;;;;;;6.67;67.71;101968.78;5077838;28;20453;-78
2021/03/23 04:38:12;;;;;;;5.23;4.43;;;;;;;7.23;66.70;101976.41;5079202;28;20177;-78
2021/03/23 04:40:37;;;;;;;8.13;5.07;;;;;;;7.35;66.39;101971.72;5080478;28;20411;-78
2021/03/23 04:43:04;;;;;;;5.90;4.67;;;;;;;7.33;66.58;101973.34;5080055;28;20423;-79
2021/03/23 04:45:29;;;;;;;6.20;4.43;;;;;;;7.24;66.95;101971.28;5077988;28;20208;-78
2021/03/23 04:47:54;;;;;;;8.47;4.73;;;;;;;7.30;66.41;101962.00;5079471;28;20450;-78
2021/03/23 04:50:20;;;;;;;6.17;4.50;;;;;;;7.11;67.28;101966.38;5080044;28;20204;-78
2021/03/23 04:52:45;;;;;;;5.87;4.90;;;;;;;7.04;67.67;101966.94;5079889;28;20453;-78
2021/03/23 04:55:12;;;;;;;6.97;4.90;;;;;;;7.39;66.20;101963.25;5079120;28;20165;-78
2021/03/23 04:57:37;;;;;;;5.73;5.20;;;;;;;7.32;66.86;101963.84;5077556;28;20207;-78
2021/03/23 05:00:07;;;;;;;5.63;5.03;;;;;;;7.28;67.17;101972.31;5078257;28;20459;-77
2021/03/23 05:02:32;;;;;;;5.93;4.73;;;;;;;7.16;67.25;101969.19;5079607;28;20375;-77
2021/03/23 05:04:57;;;;;;;8.07;5.03;;;;;;;7.27;67.20;101967.06;5079633;28;20414;-78
2021/03/23 05:07:23;;;;;;;6.03;5.00;;;;;;;7.11;67.68;101961.19;5076005;28;20184;-76
2021/03/23 05:09:49;;;;;;;8.83;5.30;;;;;;;7.07;67.75;101954.97;5079862;28;20185;-77
2021/03/23 05:12:14;;;;;;;7.33;5.00;;;;;;;6.98;68.49;101949.41;5079227;28;20465;-76
2021/03/23 05:14:39;;;;;;;6.03;4.83;;;;;;;7.24;67.43;101945.34;5079444;28;20468;-78
2021/03/23 05:17:05;;;;;;;6.03;4.90;;;;;;;6.87;67.95;101940.25;5078909;28;20268;-77
2021/03/23 05:19:30;;;;;;;7.03;5.00;;;;;;;7.17;67.23;101940.72;5077430;28;20198;-77
2021/03/23 05:21:55;;;;;;;8.70;5.70;;;;;;;6.93;67.79;101939.63;5079164;28;20511;-78
2021/03/23 05:24:21;;;;;;;6.77;5.47;;;;;;;6.96;66.73;101938.06;5079132;28;20251;-77
2021/03/23 05:26:46;;;;;;;8.13;5.27;;;;;;;7.18;66.72;101939.88;5078086;28;20217;-78
2021/03/23 05:29:11;;;;;;;9.13;6.43;;;;;;;7.22;66.81;101940.91;5077663;28;20188;-77
2021/03/23 05:31:37;;;;;;;8.20;5.63;;;;;;;7.54;65.39;101947.44;5077278;28;20470;-78
2021/03/23 05:34:02;;;;;;;6.20;5.60;;;;;;;7.47;66.03;101942.84;5079038;28;20191;-76
2021/03/23 05:36:27;;;;;;;6.80;5.10;;;;;;;7.16;66.55;101940.66;5077470;28;20181;-77
2021/03/23 05:38:52;;;;;;;8.23;5.40;;;;;;;7.11;66.45;101940.44;5079048;28;20176;-76
2021/03/23 05:41:37;;;;;;;13.07;9.23;;;;;;;7.15;67.16;101949.25;5078865;28;20472;-78
2021/03/23 05:44:14;;;;;;;7.37;5.80;;;;;;;7.18;66.44;101950.25;5078802;28;20173;-76
2021/03/23 05:46:39;;;;;;;8.07;5.77;;;;;;;7.17;66.31;101953.69;5060545;28;20780;-75
2021/03/23 05:49:10;;;;;;;10.10;6.00;;;;;;;7.37;66.07;101949.34;5079167;28;20438;-78
2021/03/23 05:51:50;;;;;;;11.00;5.93;;;;;;;7.73;65.04;101943.91;5079978;28;20169;-78
2021/03/23 05:54:21;;;;;;;7.03;6.30;;;;;;;7.53;65.08;101943.06;5083983;28;20427;-79
2021/03/23 05:56:52;;;;;;;7.37;5.53;;;;;;;7.11;66.50;101944.75;5080722;28;20450;-79
2021/03/23 05:59:36;;;;;;;9.07;6.50;;;;;;;7.48;65.57;101941.13;5079292;28;20652;-77
2021/03/23 06:02:09;;;;;;;8.77;6.00;;;;;;;7.41;65.72;101947.75;5076256;28;20431;-78
2021/03/23 06:04:44;;;;;;;7.03;6.13;;;;;;;7.16;66.31;101943.25;5061110;28;20434;-79
2021/03/23 06:07:14;;;;;;;7.13;6.10;;;;;;;7.55;65.68;101937.94;5061219;28;20549;-77
2021/03/23 06:09:40;;;;;;;8.60;5.90;;;;;;;7.22;66.16;101941.78;5078358;28;20437;-78
2021/03/23 06:12:28;;;;;;;11.93;6.43;;;;;;;7.27;66.62;101943.72;5078241;28;20796;-78
2021/03/23 06:15:05;;;;;;;8.00;5.97;;;;;;;7.29;66.14;101940.34;5078511;28;20460;-78
2021/03/23 06:17:56;;;;;;;13.13;6.13;;;;;;;7.32;66.19;101956.06;5059378;28;20447;-78
2021/03/23 06:21:00;;;;;;;11.80;7.20;;;;;;;7.64;65.82;101953.91;5077182;28;20447;-77
2021/03/23 06:23:40;;;;;;;12.20;7.87;;;;;;;7.07;67.50;101957.56;5061117;28;20776;-75
2021/03/23 06:26:13;;;;;;;8.77;6.33;;;;;;;7.37;66.22;101958.81;5060757;28;20506;-77
2021/03/23 06:28:56;;;;;;;10.03;7.80;;;;;;;6.81;68.09;101965.91;5059323;28;20476;-77
2021/03/23 06:31:46;;;;;;;13.40;8.00;;;;;;;6.88;68.34;101961.06;5060123;28;20458;-77
2021/03/23 06:34:15;;;;;;;11.03;7.90;;;;;;;6.95;67.92;101967.41;5077795;28;20414;-75
2021/03/23 06:36:41;;;;;;;10.20;8.20;;;;;;;7.22;67.55;101974.63;5059429;28;20473;-76
2021/03/23 06:39:06;;;;;;;9.70;8.13;;;;;;;7.10;68.30;101967.19;5060437;28;20813;-76
2021/03/23 06:41:34;;;;;;;9.07;7.40;;;;;;;7.70;67.50;101967.13;5077699;28;20227;-77
2021/03/23 06:44:20;;;;;;;12.97;7.93;;;;;;;7.28;67.53;101968.81;5059972;28;20568;-76
2021/03/23 06:46:47;;;;;;;13.73;9.20;;;;;;;7.26;67.29;101971.34;5067380;28;20810;-75
2021/03/23 06:49:12;;;;;;;11.83;8.23;;;;;;;7.64;66.83;101972.06;5077894;28;20447;-76
2021/03/23 06:51:59;;;;;;;9.20;7.67;;;;;;;7.48;66.94;101967.06;5077672;28;20542;-76
2021/03/23 06:54:37;;;;;;;13.20;8.37;;;;;;;7.45;67.31;101966.94;5077971;28;20444;-76
2021/03/23 06:57:12;;;;;;;13.93;8.60;;;;;;;7.66;66.57;101961.75;5077878;28;20472;-76
2021/03/23 07:00:02;;;;;;;13.60;8.67;;;;;;;7.31;68.04;101968.97;5081998;28;20421;-78
2021/03/23 07:02:47;;;;;;;13.13;7.93;;;;;;;7.25;68.45;101966.97;5081757;28;20399;-78
2021/03/23 07:05:15;;;;;;;13.00;9.23;;;;;;;7.02;68.91;101977.25;5063840;28;20878;-77
2021/03/23 07:07:50;;;;;;;12.03;8.67;;;;;;;7.06;68.92;101979.16;5081811;28;20446;-76
2021/03/23 07:10:19;;;;;;;19.00;9.70;;;;;;;7.32;67.83;101981.09;5082075;28;20934;-76
2021/03/23 07:12:45;;;;;;;15.30;8.87;;;;;;;7.28;68.69;101982.69;5064302;28;20415;-78
2021/03/23 07:15:14;;;;;;;15.73;9.90;;;;;;;7.32;68.35;101982.00;5081897;28;20385;-78
2021/03/23 07:17:42;;;;;;;13.80;9.27;;;;;;;7.40;68.23;101988.38;5064562;28;20451;-78
2021/03/23 07:20:24;;;;;;;12.03;10.00;;;;;;;7.08;70.44;101994.78;5062534;28;20840;-78
2021/03/23 07:22:52;;;;;;;16.93;10.00;;;;;;;7.35;69.30;101992.50;5077948;28;20446;-77
2021/03/23 07:25:30;;;;;;;14.27;9.97;;;;;;;7.63;69.19;101991.06;5061239;28;20575;-78
2021/03/23 07:28:31;;;;;;;12.63;10.07;;;;;;;7.27;68.78;101988.69;5062864;28;20493;-77
2021/03/23 07:31:00;;;;;;;14.17;10.30;;;;;;;7.16;69.63;101996.00;5064369;28;20459;-76
2021/03/23 07:33:50;;;;;;;17.53;11.17;;;;;;;7.43;68.30;101992.81;5058565;28;20716;-78
2021/03/23 07:36:21;;;;;;;16.07;10.77;;;;;;;8.11;66.87;101992.13;5064339;28;20471;-78
2021/03/23 07:38:58;;;;;;;16.90;10.60;;;;;;;7.73;67.80;102000.13;5050340;28;20442;-77
2021/03/23 07:41:40;;;;;;;14.20;10.73;;;;;;;7.35;68.82;102000.28;5075280;28;20434;-76
2021/03/23 07:44:42;;;;;;;22.57;12.00;;;;;;;7.17;70.11;101999.47;5045169;28;20447;-80
2021/03/23 07:47:15;;;;;;;18.40;11.30;;;;;;;7.57;69.27;101996.88;5077030;28;20713;-76
2021/03/23 07:49:45;;;;;;;18.57;12.27;;;;;;;7.32;69.42;101996.66;5068391;28;20434;-76
2021/03/23 07:52:31;;;;;;;17.80;11.90;;;;;;;6.85;70.91;102004.13;5071037;28;20451;-77
2021/03/23 07:54:58;;;;;;;16.77;11.20;;;;;;;7.21;70.63;102006.56;5044839;28;20566;-77
2021/03/23 07:57:36;;;;;;;16.40;11.77;;;;;;;7.41;70.26;101997.97;5069948;28;20625;-77
2021/03/23 08:00:14;;;;;;;19.13;12.57;;;;;;;7.35;69.57;102002.88;5063019;28;20493;-76
2021/03/23 08:02:46;;;;;;;16.63;12.50;;;;;;;7.28;70.43;102010.31;5061205;28;20448;-78
2021/03/23 08:05:59;;;;;;;18.40;12.00;;;;;;;7.85;69.46;102000.63;5062340;28;20444;-76
2021/03/23 08:08:42;;;;;;;22.10;12.57;;;;;;;7.67;69.26;102005.97;5001512;28;20916;-78
2021/03/23 08:11:30;;;;;;;16.03;11.63;;;;;;;7.63;69.99;102008.34;5054234;28;20449;-75
2021/03/23 08:14:08;;;;;;;19.93;13.30;;;;;;;7.49;70.29;102010.34;5063600;28;20686;-75
2021/03/23 08:16:47;;;;;;;23.00;12.40;;;;;;;7.56;69.56;102010.69;5056148;28;20811;-77
2021/03/23 08:19:43;;;;;;;18.00;11.40;;;;;;;7.68;69.10;102018.09;5059491;28;20420;-74
2021/03/23 08:22:35;;;;;;;17.03;11.63;;;;;;;7.67;69.20;102008.56;5059353;28;20416;-74
2021/03/23 08:25:14;;;;;;;22.00;12.27;;;;;;;8.09;67.80;102000.75;5063678;28;20474;-73
2021/03/23 08:27:54;;;;;;;16.10;12.30;;;;;;;7.54;69.31;102012.31;5078883;28;20510;-75
2021/03/23 08:30:48;;;;;;;18.30;11.50;;;;;;;8.03;68.40;102012.59;5063911;28;20435;-79
2021/03/23 08:33:24;;;;;;;20.83;11.60;;;;;;;8.13;68.88;102000.84;5076695;28;20475;-78
2021/03/23 08:36:05;;;;;;;18.20;12.47;;;;;;;7.74;68.84;102007.09;5044088;28;20422;-79
2021/03/23 08:38:42;;;;;;;17.23;11.53;;;;;;;7.69;69.98;102009.50;5064597;28;20477;-75
2021/03/23 08:41:25;;;;;;;19.43;12.80;;;;;;;7.38;71.20;102008.19;5055640;28;20438;-75
2021/03/23 08:43:50;;;;;;;17.13;12.23;;;;;;;7.84;70.15;102010.97;5058854;28;20477;-75
2021/03/23 08:46:22;;;;;;;17.20;12.30;;;;;;;8.32;68.46;102012.88;5052908;28;20471;-77
2021/03/23 08:48:49;;;;;;;19.53;11.97;;;;;;;8.21;68.28;102005.56;5048543;28;21703;-77
2021/03/23 08:51:20;;;;;;;15.67;11.80;;;;;;;7.83;69.97;102016.97;5062000;28;20420;-76
2021/03/23 08:53:49;;;;;;;13.70;10.67;;;;;;;8.46;67.98;102001.34;5062696;28;20411;-77
2021/03/23 08:56:14;;;;;;;20.37;13.30;;;;;;;8.54;67.51;102006.84;5062480;28;20419;-77
2021/03/23 08:58:52;;;;;;;17.60;12.63;;;;;;;8.39;67.22;102005.38;5058638;28;20443;-78
2021/03/23 09:01:40;;;;;;;19.70;13.07;;;;;;;8.11;68.71;102007.72;5059649;28;20169;-72
2021/03/23 09:04:08;;;;;;;16.03;12.40;;;;;;;7.84;69.42;102019.63;5059335;28;20539;-73
2021/03/23 09:06:53;;;;;;;20.10;12.97;;;;;;;7.86;69.76;102018.00;5069750;28;20466;-75
2021/03/23 09:09:42;;;;;;;21.43;14.30;;;;;;;7.50;70.59;102025.13;5077188;28;20415;-75
2021/03/23 09:12:26;;;;;;;20.40;13.67;;;;;;;7.70;70.36;102025.97;5052026;28;20517;-76
2021/03/23 09:15:25;;;;;;;21.73;15.43;;;;;;;7.88;69.22;102015.44;5059908;28;20439;-74
2021/03/23 09:18:25;;;;;;;19.10;14.10;;;;;;;7.89;70.01;102014.63;5035398;28;20420;-74
2021/03/23 09:20:50;;;;;;;20.10;14.30;;;;;;;7.87;70.09;102024.06;5059294;28;20901;-74
2021/03/23 09:23:16;;;;;;;19.50;14.43;;;;;;;8.22;69.29;102019.41;5058767;28;20499;-74
2021/03/23 09:25:57;;;;;;;23.43;15.30;;;;;;;8.57;68.33;102012.16;5058809;28;20235;-74
2021/03/23 09:28:28;;;;;;;20.50;15.27;;;;;;;8.36;68.06;102026.06;5045819;28;20595;-72
2021/03/23 09:30:55;;;;;;;22.27;15.70;;;;;;;8.27;68.48;102028.28;5066569;28;20696;-72
2021/03/23 09:33:23;;;;;;;22.90;14.67;;;;;;;8.20;69.34;102028.84;5059929;28;20443;-72
2021/03/23 09:36:10;;;;;;;27.20;15.80;;;;;;;8.45;67.61;102032.44;5058749;28;20415;-72
2021/03/23 09:38:48;;;;;;;25.63;16.43;;;;;;;9.00;66.19;102033.66;5058755;28;20802;-73
2021/03/23 09:41:36;;;;;;;22.60;15.60;;;;;;;8.24;67.92;102041.13;5085014;28;20906;-76
2021/03/23 09:44:04;;;;;;;18.90;15.67;;;;;;;8.49;67.28;102039.56;5066821;28;20469;-72
2021/03/23 09:46:32;;;;;;;24.60;17.80;;;;;;;8.70;66.29;102049.88;5077973;28;20458;-73
2021/03/23 09:49:11;;;;;;;26.43;16.77;;;;;;;9.14;64.76;102044.59;5059368;28;20522;-71
2021/03/23 09:51:58;;;;;;;24.27;17.60;;;;;;;8.99;65.50;102044.91;5067197;28;20495;-79
2021/03/23 09:54:58;;;;;;;24.70;17.30;;;;;;;8.64;65.91;102039.25;5078361;28;20486;-75
2021/03/23 09:57:25;;;;;;;23.00;16.10;;;;;;;8.37;67.37;102050.31;5074618;28;20437;-70
2021/03/23 09:59:54;;;;;;;28.30;16.37;;;;;;;8.56;65.74;102050.22;5077035;28;20418;-72
2021/03/23 10:02:34;;;;;;;24.17;17.43;;;;;;;8.77;64.53;102039.78;5077984;28;20407;-72
2021/03/23 10:05:18;;;;;;;23.43;17.20;;;;;;;9.05;64.12;102039.94;5060735;28;20443;-70
2021/03/23 10:07:44;;;;;;;23.80;17.20;;;;;;;9.20;63.35;102040.50;5058036;28;20447;-71
2021/03/23 10:10:21;;;;;;;23.53;17.37;;;;;;;9.18;63.48;102041.28;5058006;28;20419;-74
2021/03/23 10:12:47;;;;;;;22.10;16.17;;;;;;;9.26;64.26;102037.22;5057915;28;20740;-72
2021/03/23 10:15:22;;;;;;;23.43;17.17;;;;;;;8.91;63.62;102036.81;5057745;28;20447;-74
2021/03/23 10:17:47;;;;;;;24.20;18.43;;;;;;;9.65;61.14;102035.94;5057688;28;20173;-75
2021/03/23 10:20:17;;;;;;;25.43;18.30;;;;;;;8.76;63.47;102037.13;5058293;28;20446;-73
2021/03/23 10:22:51;;;;;;;23.27;16.57;;;;;;;8.75;63.00;102044.06;5058682;28;20488;-74
2021/03/23 10:25:17;;;;;;;22.23;18.20;;;;;;;8.87;63.05;102048.81;5057581;28;20506;-75
2021/03/23 10:27:43;;;;;;;23.00;17.67;;;;;;;8.85;63.68;102052.19;5057445;28;20416;-75
2021/03/23 10:30:17;;;;;;;25.97;17.20;;;;;;;9.41;61.20;102052.50;5062432;28;20192;-74
2021/03/23 10:32:47;;;;;;;25.83;18.00;;;;;;;9.52;60.74;102043.34;5064550;28;20211;-72
2021/03/23 10:35:24;;;;;;;25.90;18.23;;;;;;;9.38;60.77;102058.47;5040307;28;20420;-73
2021/03/23 10:38:16;;;;;;;21.97;17.60;;;;;;;8.45;62.63;102058.44;5057740;28;20491;-71
2021/03/23 10:40:43;;;;;;;23.40;17.13;;;;;;;8.70;62.49;102062.88;5049387;28;20447;-72
2021/03/23 10:43:28;;;;;;;21.60;16.50;;;;;;;9.02;62.43;102063.22;5057591;28;20816;-73
2021/03/23 10:45:54;;;;;;;22.80;17.63;;;;;;;9.05;62.33;102065.94;5040276;28;20456;-72
2021/03/23 10:48:25;;;;;;;26.17;18.27;;;;;;;9.60;59.62;102054.03;5065325;28;20461;-71
2021/03/23 10:51:19;;;;;;;24.53;17.57;;;;;;;9.65;60.14;102059.38;5069447;28;20184;-72
2021/03/23 10:54:06;;;;;;;25.70;17.83;;;;;;;8.54;62.67;102067.50;5077757;28;20678;-72
2021/03/23 10:56:37;;;;;;;31.30;19.33;;;;;;;9.53;60.31;102062.47;5059383;28;20436;-71
2021/03/23 10:59:10;;;;;;;23.67;18.47;;;;;;;8.49;62.52;102068.16;5058347;28;20860;-78
2021/03/23 11:01:37;;;;;;;26.93;18.10;;;;;;;8.91;61.46;102062.81;5057494;28;20424;-73
2021/03/23 11:04:11;;;;;;;22.23;17.00;;;;;;;9.51;60.32;102056.31;5056785;28;20411;-74
2021/03/23 11:06:37;;;;;;;26.10;18.67;;;;;;;9.56;59.35;102055.63;5056847;28;20879;-73
2021/03/23 11:09:08;;;;;;;24.67;17.33;;;;;;;9.72;59.88;102048.38;5057234;28;20452;-75
2021/03/23 11:11:34;;;;;;;25.10;18.63;;;;;;;9.36;59.57;102057.56;5061810;28;20435;-75
2021/03/23 11:14:00;;;;;;;26.83;18.33;;;;;;;9.47;60.06;102050.13;5057049;28;20738;-71
2021/03/23 11:16:27;;;;;;;25.93;18.90;;;;;;;9.58;58.74;102053.13;5057105;28;20440;-71
2021/03/23 11:18:56;;;;;;;25.17;18.60;;;;;;;9.37;60.06;102048.91;5040049;28;20170;-70
2021/03/23 11:21:21;;;;;;;26.00;17.60;;;;;;;9.35;61.45;102053.19;5056975;28;20420;-72
2021/03/23 11:23:48;;;;;;;30.70;19.83;;;;;;;9.10;60.72;102056.59;5056551;28;20485;-76
2021/03/23 11:26:20;;;;;;;25.07;18.37;;;;;;;9.51;59.04;102056.31;5060431;28;20200;-71
2021/03/23 11:28:46;;;;;;;27.80;19.47;;;;;;;9.37;59.63;102054.09;5070592;28;20442;-70
2021/03/23 11:31:14;;;;;;;30.23;21.60;;;;;;;9.18;60.13;102056.88;5061527;28;20429;-70
2021/03/23 11:33:39;;;;;;;24.27;18.30;;;;;;;8.98;61.10;102054.41;5076365;28;20500;-71
2021/03/23 11:36:06;;;;;;;25.13;19.33;;;;;;;9.49;59.52;102050.19;5077206;28;20462;-72
2021/03/23 11:38:31;;;;;;;31.30;19.63;;;;;;;9.42;59.46;102052.56;5065222;28;20185;-70
2021/03/23 11:40:58;;;;;;;29.67;20.90;;;;;;;9.21;60.03;102042.25;5057462;28;20849;-71
2021/03/23 11:43:44;;;;;;;27.03;19.57;;;;;;;9.91;58.12;102039.47;5040444;28;20182;-72
2021/03/23 11:46:28;;;;;;;24.43;17.97;;;;;;;9.07;60.08;102044.34;5061997;28;20876;-72